Time;durP1;ratioP1;P1;durP2;ratioP2;P2;SDS_P1;SDS_P2;PMS_P1;PMS_P2;Temp;Humidity;BMP_temperature;BMP_pressure;BME280_temperature;BME280_humidity;BME280_pressure;Samples;Min_cycle;Max_cycle;Signal;HPM_P1;HPM_P2
2022/11/08 00:03:08;;;;;;;0.70;0.70;;;;;;;;;;5071611;28;20193;-73
2022/11/08 00:13:58;;;;;;;0.70;0.70;;;;;;;;;;5071276;28;20239;-75
2022/11/08 00:16:24;;;;;;;0.70;0.70;;;;;;;;;;5071349;28;20192;-74
2022/11/08 00:18:50;;;;;;;0.70;0.70;;;;;;;;;;5071291;28;20186;-75
2022/11/08 00:21:16;;;;;;;0.70;0.70;;;;;;;;;;5070665;28;20198;-74
2022/11/08 00:23:43;;;;;;;0.80;0.80;;;;;;;;;;5071797;28;20180;-74
2022/11/08 00:26:09;;;;;;;0.70;0.70;;;;;;;;;;5076009;28;20178;-74
2022/11/08 00:28:35;;;;;;;0.50;0.50;;;;;;;;;;5074946;28;20232;-74
2022/11/08 00:31:05;;;;;;;0.60;0.60;;;;;;;;;;5075728;28;20191;-74
2022/11/08 00:33:31;;;;;;;0.80;0.80;;;;;;;;;;5070971;28;20190;-74
2022/11/08 00:35:58;;;;;;;0.80;0.80;;;;;;;;;;5071137;28;20174;-74
2022/11/08 00:38:24;;;;;;;0.60;0.60;;;;;;;;;;5070863;28;20185;-74
2022/11/08 00:40:49;;;;;;;0.80;0.80;;;;;;;;;;5070623;28;20190;-73
2022/11/08 00:43:15;;;;;;;0.80;0.80;;;;;;;;;;5071036;28;20181;-74
2022/11/08 00:45:41;;;;;;;0.70;0.70;;;;;;;;;;5070820;28;20185;-74
2022/11/08 00:48:07;;;;;;;0.73;0.73;;;;;;;;;;5070559;28;20253;-73
2022/11/08 00:50:33;;;;;;;0.77;0.77;;;;;;;;;;5070230;28;20198;-74
2022/11/08 00:52:59;;;;;;;0.70;0.70;;;;;;;;;;5070541;28;20187;-74
2022/11/08 00:55:25;;;;;;;0.60;0.60;;;;;;;;;;5070760;28;20269;-74
2022/11/08 00:57:51;;;;;;;0.70;0.70;;;;;;;;;;5070832;28;20210;-73
2022/11/08 01:00:17;;;;;;;0.60;0.60;;;;;;;;;;5070168;28;20175;-74
2022/11/08 01:02:43;;;;;;;0.67;0.67;;;;;;;;;;5070706;28;20179;-74
2022/11/08 01:05:09;;;;;;;0.80;0.80;;;;;;;;;;5070868;28;20248;-73
2022/11/08 01:07:37;;;;;;;0.70;0.70;;;;;;;;;;5074248;28;20202;-74
2022/11/08 01:10:03;;;;;;;0.63;0.63;;;;;;;;;;5074121;28;20179;-74
2022/11/08 01:12:29;;;;;;;0.70;0.70;;;;;;;;;;5074408;28;20265;-74
2022/11/08 01:14:55;;;;;;;0.80;0.80;;;;;;;;;;5074251;28;20522;-74
2022/11/08 01:17:21;;;;;;;0.70;0.70;;;;;;;;;;5074297;28;20197;-74
2022/11/08 01:19:47;;;;;;;0.60;0.60;;;;;;;;;;5073453;28;20167;-74
2022/11/08 01:22:13;;;;;;;0.70;0.70;;;;;;;;;;5073915;28;20200;-74
2022/11/08 01:24:39;;;;;;;0.70;0.70;;;;;;;;;;5074229;28;20225;-74
2022/11/08 01:27:05;;;;;;;0.70;0.70;;;;;;;;;;5074200;28;20214;-74
2022/11/08 01:29:30;;;;;;;0.70;0.70;;;;;;;;;;5073795;28;20175;-74
2022/11/08 01:31:56;;;;;;;0.80;0.80;;;;;;;;;;5073520;28;20281;-74
2022/11/08 01:34:22;;;;;;;0.70;0.70;;;;;;;;;;5073757;28;20182;-74
2022/11/08 01:36:48;;;;;;;0.77;0.77;;;;;;;;;;5073694;28;20185;-74
2022/11/08 01:39:15;;;;;;;1.00;1.00;;;;;;;;;;5073803;28;20174;-74
2022/11/08 01:41:41;;;;;;;0.90;0.90;;;;;;;;;;5073360;28;20195;-74
2022/11/08 01:44:12;;;;;;;0.70;0.70;;;;;;;;;;5073910;28;20183;-73
2022/11/08 01:46:38;;;;;;;1.00;1.00;;;;;;;;;;5073741;28;20376;-73
2022/11/08 01:49:17;;;;;;;0.87;0.87;;;;;;;;;;5073655;28;20182;-73
2022/11/08 01:51:46;;;;;;;0.70;0.70;;;;;;;;;;5073040;28;20549;-74
2022/11/08 01:54:18;;;;;;;0.70;0.70;;;;;;;;;;5073745;28;20173;-74
2022/11/08 01:56:45;;;;;;;0.80;0.80;;;;;;;;;;5073763;28;20202;-74
2022/11/08 01:59:12;;;;;;;0.80;0.80;;;;;;;;;;5073494;28;20193;-74
2022/11/08 02:01:38;;;;;;;0.70;0.70;;;;;;;;;;5073610;28;20229;-75
2022/11/08 02:04:04;;;;;;;0.80;0.80;;;;;;;;;;5073930;28;20522;-75
2022/11/08 02:06:31;;;;;;;0.80;0.80;;;;;;;;;;5074739;28;20186;-75
2022/11/08 02:09:00;;;;;;;0.80;0.80;;;;;;;;;;5074996;28;20236;-74
2022/11/08 02:11:26;;;;;;;0.70;0.70;;;;;;;;;;5072619;28;20198;-74
2022/11/08 02:13:53;;;;;;;0.60;0.60;;;;;;;;;;5073177;28;20257;-75
2022/11/08 02:16:19;;;;;;;0.70;0.70;;;;;;;;;;5072858;28;20182;-75
2022/11/08 02:18:47;;;;;;;0.70;0.70;;;;;;;;;;5072285;28;20181;-75
2022/11/08 02:21:26;;;;;;;0.80;0.80;;;;;;;;;;5072489;28;20206;-74
2022/11/08 02:23:56;;;;;;;0.70;0.70;;;;;;;;;;5072907;28;20696;-74
2022/11/08 02:26:24;;;;;;;0.80;0.80;;;;;;;;;;5073007;28;20174;-74
2022/11/08 02:28:50;;;;;;;0.80;0.80;;;;;;;;;;5072736;28;20603;-74
2022/11/08 02:31:17;;;;;;;0.90;0.90;;;;;;;;;;5072135;28;20233;-74
2022/11/08 02:33:43;;;;;;;0.63;0.63;;;;;;;;;;5072651;28;20223;-74
2022/11/08 02:36:11;;;;;;;0.77;0.77;;;;;;;;;;5072782;28;20178;-75
2022/11/08 02:38:39;;;;;;;0.70;0.70;;;;;;;;;;5072648;28;20210;-75
2022/11/08 02:41:05;;;;;;;0.90;0.90;;;;;;;;;;5072093;28;20218;-75
2022/11/08 02:43:31;;;;;;;0.80;0.80;;;;;;;;;;5072574;28;20190;-74
2022/11/08 02:45:57;;;;;;;0.97;0.97;;;;;;;;;;5072703;28;20179;-74
2022/11/08 02:48:24;;;;;;;0.70;0.70;;;;;;;;;;5072581;28;20256;-74
2022/11/08 02:50:50;;;;;;;1.00;1.00;;;;;;;;;;5071876;28;20412;-75
2022/11/08 02:53:16;;;;;;;0.70;0.70;;;;;;;;;;5072523;28;20186;-74
2022/11/08 02:55:42;;;;;;;0.70;0.70;;;;;;;;;;5072780;28;20182;-74
2022/11/08 02:58:08;;;;;;;0.70;0.70;;;;;;;;;;5072979;28;20186;-74
2022/11/08 03:00:34;;;;;;;0.70;0.70;;;;;;;;;;5072782;28;20277;-74
2022/11/08 03:03:01;;;;;;;0.80;0.80;;;;;;;;;;5073205;28;20177;-75
2022/11/08 03:05:27;;;;;;;0.70;0.70;;;;;;;;;;5072282;28;20265;-75
2022/11/08 03:07:54;;;;;;;0.87;0.87;;;;;;;;;;5072067;28;20210;-74
2022/11/08 03:10:20;;;;;;;0.90;0.90;;;;;;;;;;5071469;28;20240;-74
2022/11/08 03:12:46;;;;;;;0.70;0.70;;;;;;;;;;5071891;28;20175;-75
2022/11/08 03:15:13;;;;;;;0.80;0.80;;;;;;;;;;5072046;28;20181;-75
2022/11/08 03:17:39;;;;;;;0.70;0.70;;;;;;;;;;5071923;28;20274;-74
2022/11/08 03:20:07;;;;;;;0.87;0.87;;;;;;;;;;5071182;28;20273;-74
2022/11/08 03:22:33;;;;;;;0.80;0.80;;;;;;;;;;5071910;28;20178;-74
2022/11/08 03:24:58;;;;;;;0.70;0.70;;;;;;;;;;5071816;28;20217;-75
2022/11/08 03:27:24;;;;;;;0.70;0.70;;;;;;;;;;5071704;28;20240;-75
2022/11/08 03:29:50;;;;;;;0.60;0.60;;;;;;;;;;5071254;28;20174;-74
2022/11/08 03:32:16;;;;;;;0.90;0.90;;;;;;;;;;5071789;28;20194;-74
2022/11/08 03:34:42;;;;;;;0.70;0.70;;;;;;;;;;5109242;22;20300;-77
2022/11/08 03:37:09;;;;;;;0.90;0.90;;;;;;;;;;5092997;28;20626;-77
2022/11/08 03:39:35;;;;;;;0.90;0.90;;;;;;;;;;5092671;28;20209;-76
2022/11/08 03:42:05;;;;;;;0.73;0.73;;;;;;;;;;5092096;28;20194;-75
2022/11/08 03:44:31;;;;;;;0.70;0.70;;;;;;;;;;5091997;28;20177;-76
2022/11/08 03:46:58;;;;;;;0.80;0.80;;;;;;;;;;5091926;28;20377;-76
2022/11/08 03:49:25;;;;;;;0.70;0.70;;;;;;;;;;5092049;28;20640;-76
2022/11/08 03:51:51;;;;;;;0.70;0.70;;;;;;;;;;5091411;28;20574;-76
2022/11/08 03:54:17;;;;;;;0.80;0.80;;;;;;;;;;5091659;28;20177;-75
2022/11/08 03:56:43;;;;;;;0.80;0.80;;;;;;;;;;5091886;28;20178;-76
2022/11/08 03:59:10;;;;;;;0.77;0.77;;;;;;;;;;5091487;28;20633;-75
2022/11/08 04:01:36;;;;;;;0.77;0.77;;;;;;;;;;5090840;28;20220;-76
2022/11/08 04:04:02;;;;;;;0.70;0.70;;;;;;;;;;5091587;28;20177;-75
2022/11/08 04:06:28;;;;;;;0.80;0.80;;;;;;;;;;5091216;28;20170;-75
2022/11/08 04:08:54;;;;;;;0.80;0.80;;;;;;;;;;5091403;28;20237;-75
2022/11/08 04:16:49;;;;;;;0.80;0.80;;;;;;;;;;5091685;28;20176;-75
2022/11/08 04:21:59;;;;;;;0.70;0.70;;;;;;;;;;5091778;28;20200;-75
2022/11/08 04:24:25;;;;;;;0.80;0.80;;;;;;;;;;5091874;28;20270;-75
2022/11/08 04:26:51;;;;;;;0.80;0.80;;;;;;;;;;5091847;28;20181;-75
2022/11/08 04:29:17;;;;;;;0.80;0.80;;;;;;;;;;5091878;28;20186;-76
2022/11/08 04:31:43;;;;;;;0.80;0.80;;;;;;;;;;5090613;28;20197;-75
2022/11/08 04:34:09;;;;;;;0.70;0.70;;;;;;;;;;5090885;28;20255;-76
2022/11/08 04:36:35;;;;;;;0.70;0.70;;;;;;;;;;5091264;28;20635;-75
2022/11/08 04:39:01;;;;;;;0.80;0.80;;;;;;;;;;5072960;28;20182;-75
2022/11/08 04:41:28;;;;;;;0.80;0.80;;;;;;;;;;5092984;28;20286;-74
2022/11/08 04:43:54;;;;;;;0.70;0.70;;;;;;;;;;5095230;28;20170;-75
2022/11/08 04:46:22;;;;;;;0.80;0.80;;;;;;;;;;5094936;28;20178;-75
2022/11/08 04:48:49;;;;;;;0.90;0.90;;;;;;;;;;5095224;28;20573;-75
2022/11/08 04:51:17;;;;;;;0.73;0.73;;;;;;;;;;5094484;28;20189;-75
2022/11/08 04:53:43;;;;;;;0.83;0.83;;;;;;;;;;5094951;28;20174;-75
2022/11/08 04:56:11;;;;;;;0.80;0.80;;;;;;;;;;5094776;28;20682;-75
2022/11/08 04:58:38;;;;;;;0.70;0.70;;;;;;;;;;5094747;28;20239;-76
2022/11/08 05:01:06;;;;;;;0.80;0.80;;;;;;;;;;5094039;28;20602;-76
2022/11/08 05:03:32;;;;;;;0.80;0.80;;;;;;;;;;5094903;28;20174;-75
2022/11/08 05:06:06;;;;;;;0.80;0.80;;;;;;;;;;5094793;28;20271;-75
2022/11/08 05:08:32;;;;;;;0.70;0.70;;;;;;;;;;5094900;28;20217;-75
2022/11/08 05:11:02;;;;;;;0.87;0.87;;;;;;;;;;5094160;28;20189;-75
2022/11/08 05:13:28;;;;;;;0.70;0.70;;;;;;;;;;5094580;28;20190;-75
2022/11/08 05:15:54;;;;;;;0.70;0.70;;;;;;;;;;5094662;28;20172;-75
2022/11/08 05:18:19;;;;;;;0.80;0.80;;;;;;;;;;5094364;28;20177;-75
2022/11/08 05:23:30;;;;;;;0.80;0.80;;;;;;;;;;5094543;28;20180;-75
2022/11/08 05:25:57;;;;;;;0.90;0.90;;;;;;;;;;5094392;28;20178;-75
2022/11/08 05:28:23;;;;;;;0.90;0.90;;;;;;;;;;5094291;28;20650;-75
2022/11/08 05:30:55;;;;;;;0.90;0.90;;;;;;;;;;5093560;28;20201;-75
2022/11/08 05:33:21;;;;;;;0.90;0.90;;;;;;;;;;5094002;28;20211;-75
2022/11/08 05:35:47;;;;;;;0.60;0.60;;;;;;;;;;5094287;28;20181;-75
2022/11/08 05:38:13;;;;;;;0.80;0.80;;;;;;;;;;5094166;28;20540;-76
2022/11/08 05:40:39;;;;;;;0.87;0.87;;;;;;;;;;5093286;28;20231;-76
2022/11/08 05:43:05;;;;;;;0.80;0.80;;;;;;;;;;5094370;28;20181;-76
2022/11/08 05:45:31;;;;;;;0.70;0.70;;;;;;;;;;5094141;28;20182;-75
2022/11/08 05:48:02;;;;;;;0.80;0.80;;;;;;;;;;5093791;28;20623;-75
2022/11/08 05:50:28;;;;;;;0.80;0.80;;;;;;;;;;5093359;28;20193;-75
2022/11/08 05:52:54;;;;;;;0.83;0.83;;;;;;;;;;5092171;28;20643;-75
2022/11/08 05:55:20;;;;;;;0.83;0.83;;;;;;;;;;5094218;28;20266;-74
2022/11/08 05:57:46;;;;;;;0.83;0.83;;;;;;;;;;5093759;28;20205;-74
2022/11/08 06:00:12;;;;;;;0.73;0.73;;;;;;;;;;5076994;28;20179;-75
2022/11/08 06:02:39;;;;;;;0.70;0.70;;;;;;;;;;5075086;28;20182;-75
2022/11/08 06:05:05;;;;;;;0.90;0.90;;;;;;;;;;5093562;28;20173;-75
2022/11/08 06:07:31;;;;;;;0.77;0.77;;;;;;;;;;5093375;28;20213;-75
2022/11/08 06:09:57;;;;;;;0.80;0.80;;;;;;;;;;5092802;28;20182;-75
2022/11/08 06:12:23;;;;;;;0.90;0.90;;;;;;;;;;5093251;28;20281;-75
2022/11/08 06:14:49;;;;;;;0.80;0.80;;;;;;;;;;5093325;28;20206;-75
2022/11/08 06:17:15;;;;;;;0.80;0.80;;;;;;;;;;5093261;28;20178;-75
2022/11/08 06:19:41;;;;;;;0.80;0.80;;;;;;;;;;5092852;28;20193;-75
2022/11/08 06:22:07;;;;;;;0.90;0.90;;;;;;;;;;5093678;28;20198;-75
2022/11/08 06:24:33;;;;;;;0.80;0.80;;;;;;;;;;5093061;28;20184;-74
2022/11/08 06:26:59;;;;;;;0.90;0.90;;;;;;;;;;5093039;28;20170;-75
2022/11/08 06:29:25;;;;;;;0.80;0.80;;;;;;;;;;5094627;28;20178;-75
2022/11/08 06:31:51;;;;;;;0.80;0.80;;;;;;;;;;5094455;28;20193;-76
2022/11/08 06:34:17;;;;;;;0.80;0.80;;;;;;;;;;5073485;28;20591;-76
2022/11/08 06:36:43;;;;;;;0.90;0.90;;;;;;;;;;5094723;28;20338;-76
2022/11/08 06:39:09;;;;;;;0.90;0.90;;;;;;;;;;5087720;28;20188;-76
2022/11/08 06:41:35;;;;;;;0.90;0.90;;;;;;;;;;5079613;28;20213;-77
2022/11/08 06:44:01;;;;;;;0.87;0.87;;;;;;;;;;5088255;28;20182;-76
2022/11/08 06:46:27;;;;;;;0.90;0.90;;;;;;;;;;5094196;28;20189;-76
2022/11/08 06:48:53;;;;;;;0.93;0.93;;;;;;;;;;5092419;28;20213;-76
2022/11/08 06:51:20;;;;;;;0.80;0.80;;;;;;;;;;5091263;28;20285;-76
2022/11/08 06:53:46;;;;;;;0.80;0.80;;;;;;;;;;5092988;28;20201;-76
2022/11/08 06:56:12;;;;;;;0.77;0.77;;;;;;;;;;5092776;28;20752;-76
2022/11/08 06:58:38;;;;;;;0.70;0.70;;;;;;;;;;5087554;28;20211;-76
2022/11/08 07:01:05;;;;;;;0.60;0.60;;;;;;;;;;5088584;28;20190;-76
2022/11/08 07:03:31;;;;;;;0.60;0.60;;;;;;;;;;5081525;28;20205;-77
2022/11/08 07:05:57;;;;;;;0.80;0.80;;;;;;;;;;5080119;28;20177;-76
2022/11/08 07:08:23;;;;;;;0.70;0.70;;;;;;;;;;5092147;28;20296;-75
2022/11/08 07:10:49;;;;;;;0.60;0.60;;;;;;;;;;5091608;28;20610;-76
2022/11/08 07:13:15;;;;;;;0.70;0.70;;;;;;;;;;5092094;28;20178;-75
2022/11/08 07:15:41;;;;;;;0.60;0.60;;;;;;;;;;5092427;28;20177;-75
2022/11/08 07:18:08;;;;;;;0.60;0.60;;;;;;;;;;5093828;28;20177;-76
2022/11/08 07:20:34;;;;;;;0.70;0.70;;;;;;;;;;5076429;28;20198;-75
2022/11/08 07:23:00;;;;;;;0.63;0.63;;;;;;;;;;5074837;28;20179;-75
2022/11/08 07:25:27;;;;;;;0.70;0.70;;;;;;;;;;5074280;28;20186;-76
2022/11/08 07:27:57;;;;;;;0.70;0.70;;;;;;;;;;5071909;28;20221;-76
2022/11/08 07:30:23;;;;;;;0.63;0.63;;;;;;;;;;5076973;28;20171;-78
2022/11/08 07:32:49;;;;;;;0.60;0.60;;;;;;;;;;5072204;28;20808;-77
2022/11/08 07:35:15;;;;;;;0.43;0.43;;;;;;;;;;5072119;28;20182;-77
2022/11/08 07:37:41;;;;;;;0.60;0.60;;;;;;;;;;5072746;28;20174;-78
2022/11/08 07:40:07;;;;;;;0.67;0.67;;;;;;;;;;5076354;28;20520;-79
2022/11/08 07:42:37;;;;;;;0.50;0.50;;;;;;;;;;5089198;28;20295;-78
2022/11/08 07:45:07;;;;;;;0.63;0.63;;;;;;;;;;5072959;28;20520;-79
2022/11/08 07:47:33;;;;;;;0.50;0.50;;;;;;;;;;5072913;28;20302;-78
2022/11/08 07:49:59;;;;;;;0.50;0.50;;;;;;;;;;5079799;28;20167;-78
2022/11/08 07:52:25;;;;;;;0.50;0.50;;;;;;;;;;5104059;28;20252;-79
2022/11/08 07:54:51;;;;;;;0.70;0.70;;;;;;;;;;5113832;28;20158;-79
2022/11/08 07:57:17;;;;;;;0.53;0.53;;;;;;;;;;5116748;28;20189;-78
2022/11/08 07:59:43;;;;;;;0.60;0.60;;;;;;;;;;5117032;28;20173;-78
2022/11/08 08:02:10;;;;;;;0.60;0.60;;;;;;;;;;5115793;28;20191;-77
2022/11/08 08:04:36;;;;;;;0.60;0.60;;;;;;;;;;5116515;28;20185;-78
2022/11/08 08:07:02;;;;;;;0.60;0.60;;;;;;;;;;5113792;28;20161;-78
2022/11/08 08:09:27;;;;;;;0.50;0.50;;;;;;;;;;5095720;28;20247;-79
2022/11/08 08:11:53;;;;;;;0.40;0.40;;;;;;;;;;5101145;28;20178;-79
2022/11/08 08:14:19;;;;;;;0.60;0.60;;;;;;;;;;5111138;28;20197;-79
2022/11/08 08:16:45;;;;;;;0.40;0.40;;;;;;;;;;5107474;28;20158;-79
2022/11/08 08:19:11;;;;;;;0.40;0.40;;;;;;;;;;5115422;28;20200;-78
2022/11/08 08:21:37;;;;;;;0.37;0.37;;;;;;;;;;5116489;28;20257;-79
2022/11/08 08:24:04;;;;;;;0.40;0.40;;;;;;;;;;5116105;28;20176;-78
2022/11/08 08:26:30;;;;;;;0.30;0.30;;;;;;;;;;5114727;28;20185;-80
2022/11/08 08:28:56;;;;;;;0.37;0.37;;;;;;;;;;5115113;28;20220;-78
2022/11/08 08:31:22;;;;;;;0.40;0.40;;;;;;;;;;5114268;28;20193;-79
2022/11/08 08:33:48;;;;;;;0.30;0.30;;;;;;;;;;5096972;28;20218;-76
2022/11/08 08:36:14;;;;;;;0.40;0.40;;;;;;;;;;5110645;28;20233;-77
2022/11/08 08:38:40;;;;;;;0.30;0.30;;;;;;;;;;5103249;28;20211;-74
2022/11/08 08:41:05;;;;;;;0.40;0.40;;;;;;;;;;5103681;28;20202;-75
2022/11/08 08:43:31;;;;;;;0.50;0.50;;;;;;;;;;5094449;28;20181;-77
2022/11/08 08:45:58;;;;;;;0.30;0.30;;;;;;;;;;5091078;28;20184;-76
2022/11/08 08:48:25;;;;;;;0.50;0.50;;;;;;;;;;5097057;28;20563;-75
2022/11/08 08:50:51;;;;;;;0.37;0.37;;;;;;;;;;5095429;28;20228;-77
2022/11/08 08:53:17;;;;;;;0.50;0.50;;;;;;;;;;5091229;28;20182;-73
2022/11/08 08:55:43;;;;;;;0.60;0.60;;;;;;;;;;5091239;28;20646;-75
2022/11/08 08:58:09;;;;;;;0.60;0.60;;;;;;;;;;5092147;28;20177;-79
2022/11/08 09:00:35;;;;;;;0.50;0.50;;;;;;;;;;5094305;28;20200;-77
2022/11/08 09:03:05;;;;;;;0.60;0.60;;;;;;;;;;5091920;28;20189;-77
2022/11/08 09:05:32;;;;;;;0.40;0.40;;;;;;;;;;5090527;28;20653;-74
2022/11/08 09:07:58;;;;;;;0.40;0.40;;;;;;;;;;5090679;28;20205;-74
2022/11/08 09:10:24;;;;;;;0.60;0.60;;;;;;;;;;5092185;28;20200;-78
2022/11/08 09:12:50;;;;;;;0.50;0.50;;;;;;;;;;5093251;28;20178;-78
2022/11/08 09:15:16;;;;;;;0.50;0.50;;;;;;;;;;5093973;28;20193;-77
2022/11/08 09:17:42;;;;;;;0.40;0.40;;;;;;;;;;5091319;28;20177;-75
2022/11/08 09:20:09;;;;;;;0.40;0.40;;;;;;;;;;5090644;28;20572;-76
2022/11/08 09:22:35;;;;;;;0.50;0.50;;;;;;;;;;5091369;28;20181;-77
2022/11/08 09:25:01;;;;;;;0.50;0.50;;;;;;;;;;5091660;28;20178;-77
2022/11/08 09:27:29;;;;;;;0.40;0.40;;;;;;;;;;5094588;28;20221;-77
2022/11/08 09:29:55;;;;;;;0.57;0.57;;;;;;;;;;5094874;28;20178;-76
2022/11/08 09:32:21;;;;;;;0.60;0.60;;;;;;;;;;5095571;28;20202;-78
2022/11/08 09:34:47;;;;;;;0.53;0.53;;;;;;;;;;5094791;28;20189;-76
2022/11/08 09:37:13;;;;;;;0.60;0.60;;;;;;;;;;5096459;28;20174;-79
2022/11/08 09:39:39;;;;;;;0.50;0.50;;;;;;;;;;5099828;28;20241;-78
2022/11/08 09:42:28;;;;;;;0.53;0.53;;;;;;;;;;5094969;28;20193;-79
2022/11/08 09:45:09;;;;;;;0.60;0.60;;;;;;;;;;5092747;28;20190;-79
2022/11/08 09:47:36;;;;;;;0.60;0.60;;;;;;;;;;5081223;28;20213;-79
2022/11/08 09:50:05;;;;;;;0.50;0.50;;;;;;;;;;5081277;28;20181;-79
2022/11/08 09:52:32;;;;;;;0.60;0.60;;;;;;;;;;5098379;28;20174;-79
2022/11/08 09:55:09;;;;;;;0.40;0.40;;;;;;;;;;5100235;28;20185;-78
2022/11/08 09:57:46;;;;;;;0.40;0.40;;;;;;;;;;5103110;28;20193;-81
2022/11/08 10:00:13;;;;;;;0.40;0.40;;;;;;;;;;5098153;28;20650;-81
2022/11/08 10:02:39;;;;;;;0.50;0.50;;;;;;;;;;5100106;28;20205;-81
2022/11/08 10:05:08;;;;;;;0.30;0.30;;;;;;;;;;5098239;28;20174;-81
2022/11/08 10:07:40;;;;;;;0.40;0.40;;;;;;;;;;5095267;28;20206;-80
2022/11/08 10:10:06;;;;;;;0.30;0.30;;;;;;;;;;5096614;28;20220;-80
2022/11/08 10:12:41;;;;;;;0.40;0.40;;;;;;;;;;5102504;28;20178;-78
2022/11/08 10:15:13;;;;;;;0.40;0.40;;;;;;;;;;5083396;28;20181;-77
2022/11/08 10:17:45;;;;;;;0.43;0.43;;;;;;;;;;5083069;28;20216;-78
2022/11/08 10:20:29;;;;;;;0.33;0.33;;;;;;;;;;5099668;28;20194;-79
2022/11/08 10:23:18;;;;;;;0.30;0.30;;;;;;;;;;5104139;28;20241;-78
2022/11/08 10:25:49;;;;;;;0.40;0.40;;;;;;;;;;5100642;28;20201;-81
2022/11/08 10:28:17;;;;;;;0.30;0.30;;;;;;;;;;5103422;28;20209;-80
2022/11/08 10:30:46;;;;;;;0.30;0.30;;;;;;;;;;5101327;28;20587;-80
2022/11/08 10:33:21;;;;;;;0.40;0.40;;;;;;;;;;5102013;28;20612;-79
2022/11/08 10:35:49;;;;;;;0.30;0.30;;;;;;;;;;5102089;28;20177;-81
2022/11/08 10:38:19;;;;;;;0.40;0.40;;;;;;;;;;5103697;28;20177;-79
2022/11/08 10:40:54;;;;;;;0.30;0.30;;;;;;;;;;5103405;28;20197;-78
2022/11/08 10:43:34;;;;;;;0.30;0.30;;;;;;;;;;5075371;28;20183;-80
2022/11/08 10:46:00;;;;;;;0.30;0.30;;;;;;;;;;5081598;28;20174;-79
2022/11/08 10:48:26;;;;;;;0.40;0.40;;;;;;;;;;5077474;28;20297;-80
2022/11/08 10:50:52;;;;;;;0.40;0.40;;;;;;;;;;5079427;28;20651;-79
2022/11/08 10:53:22;;;;;;;0.40;0.40;;;;;;;;;;5095347;28;20556;-78
2022/11/08 10:55:50;;;;;;;0.40;0.40;;;;;;;;;;5094330;28;20223;-78
2022/11/08 10:58:29;;;;;;;0.43;0.43;;;;;;;;;;5095020;28;20180;-78
2022/11/08 11:01:00;;;;;;;0.40;0.40;;;;;;;;;;5098508;28;20201;-78
2022/11/08 11:03:29;;;;;;;0.40;0.40;;;;;;;;;;5096050;28;20173;-78
2022/11/08 11:05:59;;;;;;;0.40;0.40;;;;;;;;;;5098436;28;20662;-77
2022/11/08 11:08:25;;;;;;;0.30;0.30;;;;;;;;;;5099629;28;20312;-77
2022/11/08 11:10:51;;;;;;;0.40;0.40;;;;;;;;;;5094535;28;20662;-78
2022/11/08 11:13:25;;;;;;;0.30;0.30;;;;;;;;;;5094873;28;20243;-77
2022/11/08 11:16:06;;;;;;;0.30;0.30;;;;;;;;;;5103928;28;20196;-79
2022/11/08 11:18:32;;;;;;;0.40;0.40;;;;;;;;;;5095958;28;20242;-82
2022/11/08 11:21:05;;;;;;;0.33;0.33;;;;;;;;;;5096086;28;20694;-80
2022/11/08 11:23:34;;;;;;;0.30;0.30;;;;;;;;;;5095123;28;20782;-81
2022/11/08 11:26:01;;;;;;;0.50;0.50;;;;;;;;;;5095949;28;20170;-78
2022/11/08 11:28:27;;;;;;;0.43;0.43;;;;;;;;;;5096747;28;20228;-80
2022/11/08 11:31:00;;;;;;;0.40;0.40;;;;;;;;;;5096926;28;20205;-83
2022/11/08 11:33:28;;;;;;;0.50;0.50;;;;;;;;;;5095896;28;20215;-81
2022/11/08 11:35:59;;;;;;;0.30;0.30;;;;;;;;;;5094255;28;20173;-80
2022/11/08 11:38:41;;;;;;;0.40;0.40;;;;;;;;;;5095542;28;20182;-81
2022/11/08 11:41:12;;;;;;;0.40;0.40;;;;;;;;;;5097309;28;20194;-79
2022/11/08 11:43:41;;;;;;;0.40;0.40;;;;;;;;;;5097177;28;20265;-80
2022/11/08 11:46:34;;;;;;;0.40;0.40;;;;;;;;;;5098360;28;20260;-79
2022/11/08 11:49:01;;;;;;;0.30;0.30;;;;;;;;;;5095471;28;20217;-79
2022/11/08 11:51:28;;;;;;;0.30;0.30;;;;;;;;;;5077355;28;20570;-78
2022/11/08 11:53:55;;;;;;;0.30;0.30;;;;;;;;;;5096198;28;20165;-80
2022/11/08 11:56:39;;;;;;;0.30;0.30;;;;;;;;;;5099192;28;20177;-79
2022/11/08 11:59:11;;;;;;;0.40;0.40;;;;;;;;;;5096246;28;20260;-77
2022/11/08 12:01:43;;;;;;;0.30;0.30;;;;;;;;;;5094928;28;20206;-79
2022/11/08 12:04:09;;;;;;;0.30;0.30;;;;;;;;;;5097284;28;20166;-80
2022/11/08 12:06:54;;;;;;;0.40;0.40;;;;;;;;;;5099266;28;20184;-80
2022/11/08 12:09:26;;;;;;;0.30;0.30;;;;;;;;;;5085352;28;20221;-80
2022/11/08 12:12:11;;;;;;;0.30;0.30;;;;;;;;;;5076141;28;20277;-80
2022/11/08 12:14:55;;;;;;;0.30;0.30;;;;;;;;;;5076002;28;20183;-78
2022/11/08 12:17:21;;;;;;;0.40;0.40;;;;;;;;;;5075956;28;20170;-79
2022/11/08 12:19:59;;;;;;;0.30;0.30;;;;;;;;;;5086408;28;20669;-78
2022/11/08 12:22:44;;;;;;;0.40;0.40;;;;;;;;;;5097298;28;20246;-78
2022/11/08 12:25:10;;;;;;;0.30;0.30;;;;;;;;;;5112843;28;20200;-79
2022/11/08 12:27:48;;;;;;;0.50;0.50;;;;;;;;;;5103337;28;20221;-78
2022/11/08 12:30:20;;;;;;;0.40;0.40;;;;;;;;;;5095731;28;20663;-78
2022/11/08 12:32:49;;;;;;;0.40;0.40;;;;;;;;;;5097244;28;20173;-80
2022/11/08 12:35:24;;;;;;;0.30;0.30;;;;;;;;;;5098334;28;20337;-79
2022/11/08 12:38:04;;;;;;;0.47;0.47;;;;;;;;;;5098081;28;20718;-78
2022/11/08 12:40:35;;;;;;;0.50;0.50;;;;;;;;;;5091661;28;20225;-77
2022/11/08 12:43:13;;;;;;;0.40;0.40;;;;;;;;;;5092761;28;20169;-80
2022/11/08 12:45:45;;;;;;;0.43;0.43;;;;;;;;;;5095678;28;20649;-78
2022/11/08 12:48:20;;;;;;;0.30;0.30;;;;;;;;;;5094654;28;20218;-79
2022/11/08 12:50:52;;;;;;;0.50;0.50;;;;;;;;;;5091533;28;20193;-77
2022/11/08 12:53:27;;;;;;;0.40;0.40;;;;;;;;;;5091270;28;20674;-77
2022/11/08 12:55:55;;;;;;;0.30;0.30;;;;;;;;;;5090903;28;20180;-77
2022/11/08 12:58:40;;;;;;;0.30;0.30;;;;;;;;;;5084575;28;20214;-76
2022/11/08 13:01:10;;;;;;;0.40;0.40;;;;;;;;;;5081442;28;20202;-76
2022/11/08 13:03:45;;;;;;;0.40;0.40;;;;;;;;;;5082823;28;20654;-77
2022/11/08 13:06:18;;;;;;;0.40;0.40;;;;;;;;;;5092262;28;20599;-78
2022/11/08 13:08:52;;;;;;;0.30;0.30;;;;;;;;;;5089302;28;20205;-77
2022/11/08 13:11:21;;;;;;;0.30;0.30;;;;;;;;;;5096332;28;20262;-76
2022/11/08 13:13:57;;;;;;;0.33;0.33;;;;;;;;;;5095161;28;20182;-78
2022/11/08 13:16:24;;;;;;;0.30;0.30;;;;;;;;;;5097106;28;20185;-78
2022/11/08 13:18:52;;;;;;;0.30;0.30;;;;;;;;;;5096941;28;20230;-80
2022/11/08 13:21:30;;;;;;;0.47;0.47;;;;;;;;;;5097636;28;20212;-79
2022/11/08 13:24:02;;;;;;;0.40;0.40;;;;;;;;;;5097985;28;20177;-78
2022/11/08 13:26:29;;;;;;;0.30;0.30;;;;;;;;;;5098887;28;20181;-79
2022/11/08 13:29:13;;;;;;;0.30;0.30;;;;;;;;;;5097297;28;20620;-79
2022/11/08 13:31:57;;;;;;;0.40;0.40;;;;;;;;;;5096309;28;20257;-80
2022/11/08 13:34:29;;;;;;;0.40;0.40;;;;;;;;;;5096747;28;20201;-80
2022/11/08 13:37:14;;;;;;;0.40;0.40;;;;;;;;;;5096475;28;20170;-78
2022/11/08 13:39:59;;;;;;;0.43;0.43;;;;;;;;;;5096975;28;20178;-77
2022/11/08 13:42:39;;;;;;;0.43;0.43;;;;;;;;;;5096135;28;20335;-80
2022/11/08 13:45:22;;;;;;;0.40;0.40;;;;;;;;;;5095386;28;20188;-77
2022/11/08 13:47:52;;;;;;;0.40;0.40;;;;;;;;;;5095592;28;20217;-78
2022/11/08 13:50:30;;;;;;;0.40;0.40;;;;;;;;;;5094634;28;20289;-78
2022/11/08 13:53:02;;;;;;;0.40;0.40;;;;;;;;;;5094738;28;20257;-78
2022/11/08 13:55:46;;;;;;;0.50;0.50;;;;;;;;;;5074887;28;20190;-79
2022/11/08 13:58:31;;;;;;;0.30;0.30;;;;;;;;;;5088236;28;20189;-78
2022/11/08 14:00:57;;;;;;;0.40;0.40;;;;;;;;;;5092778;28;20684;-77
2022/11/08 14:03:32;;;;;;;0.40;0.40;;;;;;;;;;5084206;28;20182;-77
2022/11/08 14:06:04;;;;;;;0.40;0.40;;;;;;;;;;5078271;28;20331;-77
2022/11/08 14:08:36;;;;;;;0.50;0.50;;;;;;;;;;5072763;28;20213;-77
2022/11/08 14:11:07;;;;;;;0.30;0.30;;;;;;;;;;5072420;28;20225;-77
2022/11/08 14:13:33;;;;;;;0.50;0.50;;;;;;;;;;5073194;28;20170;-78
2022/11/08 14:16:05;;;;;;;0.40;0.40;;;;;;;;;;5095977;28;20677;-77
2022/11/08 14:18:38;;;;;;;0.40;0.40;;;;;;;;;;5095743;28;20174;-78
2022/11/08 14:21:04;;;;;;;0.40;0.40;;;;;;;;;;5095306;28;20198;-77
2022/11/08 14:23:31;;;;;;;0.57;0.57;;;;;;;;;;5096017;28;20181;-78
2022/11/08 14:25:57;;;;;;;0.40;0.40;;;;;;;;;;5098030;28;20174;-78
2022/11/08 14:28:25;;;;;;;0.40;0.40;;;;;;;;;;5100016;28;20217;-78
2022/11/08 14:30:51;;;;;;;0.40;0.40;;;;;;;;;;5106506;28;20193;-79
2022/11/08 14:33:18;;;;;;;0.53;0.53;;;;;;;;;;5106370;28;20315;-79
2022/11/08 14:35:59;;;;;;;0.40;0.40;;;;;;;;;;5102987;28;20281;-78
2022/11/08 14:38:26;;;;;;;0.50;0.50;;;;;;;;;;5101615;28;20182;-78
2022/11/08 14:40:57;;;;;;;0.40;0.40;;;;;;;;;;5098565;28;20197;-78
2022/11/08 14:43:23;;;;;;;0.50;0.50;;;;;;;;;;5099769;28;20166;-77
2022/11/08 14:45:49;;;;;;;0.40;0.40;;;;;;;;;;5101743;28;20178;-79
2022/11/08 14:48:24;;;;;;;0.40;0.40;;;;;;;;;;5098768;28;20639;-79
2022/11/08 14:50:57;;;;;;;0.47;0.47;;;;;;;;;;5095579;28;20197;-78
2022/11/08 14:53:27;;;;;;;0.40;0.40;;;;;;;;;;5094746;28;20233;-78
2022/11/08 14:55:55;;;;;;;0.40;0.40;;;;;;;;;;5093645;28;20249;-78
2022/11/08 14:58:21;;;;;;;0.40;0.40;;;;;;;;;;5093935;28;20253;-78
2022/11/08 15:00:48;;;;;;;0.40;0.40;;;;;;;;;;5089797;28;20232;-79
2022/11/08 15:03:15;;;;;;;0.40;0.40;;;;;;;;;;5097288;22;20260;-81
2022/11/08 15:05:44;;;;;;;0.40;0.40;;;;;;;;;;5116418;28;20832;-79
2022/11/08 15:08:22;;;;;;;0.40;0.40;;;;;;;;;;5116225;28;20215;-79
2022/11/08 15:10:52;;;;;;;0.50;0.50;;;;;;;;;;5118127;28;20213;-79
2022/11/08 15:13:18;;;;;;;0.47;0.47;;;;;;;;;;5118831;28;20661;-79